Windsor Locks, Connecticut
Current Conditions -  °F | °C
As of 3:51 AM on Sunday 26 Oct 2014 (Local Time) from KBDL Reporting Station
Scattered Clouds Scattered Clouds  
Wind Chill: 50°   Ceiling: Unl
Heat Index: 50°   Visibility: 10mi
Dew Point: 43°   Wind: 3mph
Humidity: 77%   Direction: 210°SSW
Pressure: 29.5"   Gusts: NA
Location:  41.93°N, 72.63°W
Report Text: KBDL 260751Z 21003KT 10SM FEW035 SCT160 10/06 A2950 RMK AO2 SLP988 OCNL LTGIC DSNT SW CB DSNT SW T01000061
Loading
Personal Weather Stations






























Interactive Weather Map
Tropical Storm Tracking
New forecast layout! Learn more

10-Day Weather Forecast

Advertisements
Track Severe Weather on mobile